F/V Anna Mamm Mari — FOHD — position and weather

sailwx.info

Track history (hours):
 
Tides and Currents Weather Stations Pressure Air Temp Water Temp Dewpoint Dewpoint Depression Visibility Wind Speed Wind Dir Waves Ship Positions

F/V Anna Mamm Mari

Last reported at 2014-Sep-17 23:34 UTC. Time now 2014-Sep-17 23:40 UTC.
Position N 46°11' W 001°40'.

Length 17 m.

Type: Fishing. MMSI: 228393000.

Date/timePositionNaut miles runAvg speedWind from/ knotsBaromVisibWave heightAir tempDewpointWater temp
2014-Sep-17 23:34N 46°11' W 001°40'0 0.0
2014-Sep-17 22:32N 46°11' W 001°40'0 0.0
2014-Sep-17 21:27N 46°11' W 001°40'0 0.0
2014-Sep-17 20:27N 46°11' W 001°40'0 0.0
2014-Sep-17 17:14N 46°11' W 001°40'1 0.3
2014-Sep-17 15:32N 46°11' W 001°39'1 0.7
2014-Sep-17 14:31N 46°10' W 001°39'1 1.4
2014-Sep-17 13:33N 46°10' W 001°37'3 2.7
2014-Sep-17 12:32N 46°12' W 001°39'5 4.3
2014-Sep-17 11:28N 46°16' W 001°43'2 2.0
2014-Sep-17 10:31N 46°18' W 001°44'0 0.3
2014-Sep-17 09:33N 46°18' W 001°44'2 2.1
2014-Sep-17 08:32N 46°15' W 001°44'2 2.0
2014-Sep-17 07:33N 46°17' W 001°44'0 0.2
2014-Sep-17 06:28N 46°17' W 001°45'2 1.9
2014-Sep-17 05:33N 46°16' W 001°44'2 1.0
2014-Sep-17 03:33N 46°18' W 001°45'2 2.4
2014-Sep-17 02:33N 46°15' W 001°45'3 0.2
2014-Sep-16 15:12N 46°18' W 001°45'0 0.6
2014-Sep-16 14:23N 46°18' W 001°45'0 0.4
2014-Sep-16 13:34N 46°18' W 001°44'7 6.6
2014-Sep-16 12:32N 46°12' W 001°40'1 0.8
2014-Sep-16 11:11N 46°11' W 001°39'0 0.1
2014-Sep-16 09:14N 46°12' W 001°38'0 0.1
2014-Sep-16 06:22N 46°12' W 001°38'1 1.6
2014-Sep-16 05:32N 46°12' W 001°40'1 0.6
2014-Sep-16 04:33N 46°12' W 001°39'0 0.4
2014-Sep-16 03:33N 46°12' W 001°40'1 1.0
2014-Sep-16 02:33N 46°11' W 001°39'0 0.0
2014-Sep-16 01:31N 46°11' W 001°39'0 0.0
2014-Sep-16 00:33N 46°11' W 001°39'0 0.0
2014-Sep-15 23:29N 46°11' W 001°39'0 0.1
2014-Sep-15 22:34N 46°11' W 001°39'0 0.0
2014-Sep-15 21:34N 46°11' W 001°39'0 0.0
2014-Sep-15 18:17N 46°11' W 001°39'1 0.4
2014-Sep-15 15:22N 46°12' W 001°40'1 0.2
2014-Sep-15 09:28N 46°11' W 001°40'0 0.1
2014-Sep-15 07:24N 46°11' W 001°39'1 0.4
2014-Sep-15 04:32N 46°10' W 001°38'0 0.2
2014-Sep-15 03:33N 46°10' W 001°38'0 0.0
2014-Sep-15 01:32N 46°10' W 001°38'0 0.0
2014-Sep-15 00:25N 46°10' W 001°38'10 3.4
2014-Sep-14 21:28N 46°20' W 001°43'8 8.6
2014-Sep-14 20:33N 46°27' W 001°46'3 2.7
2014-Sep-14 19:33N 46°30' W 001°47'0 0.2
2014-Sep-14 18:33N 46°30' W 001°47'6 5.9
2014-Sep-14 17:33N 46°24' W 001°45'9 8.7
2014-Sep-14 16:33N 46°16' W 001°41'7 6.7
2014-Sep-14 15:33N 46°10' W 001°38'1 1.1
2014-Sep-14 14:33N 46°10' W 001°39'1 1.1
2014-Sep-14 13:32N 46°11' W 001°40'5 4.6
2014-Sep-14 12:33N 46°09' W 001°46'0 0.0
2014-Sep-14 09:09N 46°09' W 001°46'1 0.2
2014-Sep-14 05:09N 46°09' W 001°47'1 0.1
2014-Sep-13 18:23N 46°08' W 001°46'1 0.6
2014-Sep-13 16:18N 46°09' W 001°46'7 8.6
2014-Sep-13 15:32N 46°13' W 001°54'8 8.6
2014-Sep-13 14:33N 46°19' W 002°03'5 3.4
2014-Sep-13 13:07N 46°21' W 002°09'1 1.9
2014-Sep-13 12:33N 46°21' W 002°08'2 2.0
2014-Sep-13 11:24N 46°19' W 002°07'1 1.2
2014-Sep-13 10:33N 46°20' W 002°07'2 1.8
2014-Sep-13 09:32N 46°21' W 002°09'1 0.6
2014-Sep-13 08:33N 46°22' W 002°09'2 1.9
2014-Sep-13 07:33N 46°20' W 002°07'2 1.4
2014-Sep-13 06:30N 46°19' W 002°06'1 1.4
2014-Sep-13 05:33N 46°20' W 002°07'2 1.9
2014-Sep-13 04:33N 46°22' W 002°08'1 0.8
2014-Sep-13 03:33N 46°21' W 002°07'1 0.6
2014-Sep-13 02:33N 46°21' W 002°07'0 0.0
2014-Sep-13 01:33N 46°21' W 002°07'0 0.0
2014-Sep-13 00:33N 46°21' W 002°07'0 0.0
2014-Sep-12 23:33N 46°21' W 002°07'0 0.0
2014-Sep-12 22:33N 46°21' W 002°07'0 0.0
2014-Sep-12 21:33N 46°21' W 002°07'0 0.0
2014-Sep-12 20:33N 46°21' W 002°07'0 0.0
2014-Sep-12 19:33N 46°21' W 002°07'5 4.9
2014-Sep-12 18:33N 46°23' W 002°00'9 8.9
2014-Sep-12 17:33N 46°28' W 001°49'2 2.3
2014-Sep-12 16:33N 46°30' W 001°47'0 0.0
2014-Sep-12 15:33N 46°30' W 001°47'0 0.0
2014-Sep-12 14:33N 46°30' W 001°47'0 0.2
2014-Sep-12 13:33N 46°30' W 001°47'5 5.4
2014-Sep-12 12:33N 46°26' W 001°53'8 8.1
2014-Sep-12 11:33N 46°22' W 002°03'3 3.2
2014-Sep-12 10:33N 46°20' W 002°07'1 1.0
2014-Sep-12 09:32N 46°21' W 002°08'3 2.4
2014-Sep-12 08:07N 46°23' W 002°04'3 4.6
2014-Sep-12 07:33N 46°25' W 002°02'9 8.8
2014-Sep-12 06:33N 46°33' W 002°08'73 8.1
2014-Sep-11 21:33N 47°31' W 003°13'8 8.2
2014-Sep-11 20:33N 47°38' W 003°19'6 1.1
2014-Sep-11 15:25N 47°44' W 003°22'0 0.0
2014-Sep-11 14:34N 47°44' W 003°22'0 0.0
2014-Sep-11 13:34N 47°44' W 003°22'0 0.0
2014-Sep-11 12:34N 47°44' W 003°22'0 0.0
2014-Sep-11 11:33N 47°44' W 003°22'0 0.0
2014-Sep-11 10:34N 47°44' W 003°22'0 0.0
2014-Sep-11 09:33N 47°44' W 003°22'0 0.0
2014-Sep-11 08:34N 47°44' W 003°22'0 0.0
2014-Sep-11 07:34N 47°44' W 003°22'0 0.0
2014-Sep-11 06:33N 47°44' W 003°22'0 0.0
2014-Sep-11 05:34N 47°44' W 003°22'0 0.0
2014-Sep-11 04:34N 47°44' W 003°22'0 0.0
2014-Sep-11 03:33N 47°44' W 003°22'0 0.0
2014-Sep-11 02:34N 47°44' W 003°22'0 0.0
2014-Sep-11 01:33N 47°44' W 003°22'0 0.0
2014-Sep-11 00:33N 47°44' W 003°22'0 0.0
2014-Sep-10 23:34N 47°44' W 003°22'0 0.0
2014-Sep-10 22:34N 47°44' W 003°22'0 0.0
2014-Sep-10 21:34N 47°44' W 003°22'0 0.0
2014-Sep-10 20:33N 47°44' W 003°22'0 0.0
2014-Sep-10 19:34N 47°44' W 003°22'0 0.0
2014-Sep-10 18:33N 47°44' W 003°22'0 0.0
2014-Sep-10 17:34N 47°44' W 003°22'0 0.0
2014-Sep-10 16:34N 47°44' W 003°22'0 0.0
2014-Sep-10 15:34N 47°44' W 003°22'0 0.0
2014-Sep-10 14:34N 47°44' W 003°22'0 0.0
2014-Sep-10 13:34N 47°44' W 003°22'0 0.0
2014-Sep-10 12:33N 47°44' W 003°22'0 0.0
2014-Sep-10 11:33N 47°44' W 003°22'0 0.0
2014-Sep-10 10:34N 47°44' W 003°22'0 0.0
2014-Sep-10 09:34N 47°44' W 003°22'0 0.0
2014-Sep-10 08:34N 47°44' W 003°22'0 0.0
2014-Sep-10 07:33N 47°44' W 003°22'0 0.0
2014-Sep-10 06:34N 47°44' W 003°22'0 0.0
2014-Sep-10 05:34N 47°44' W 003°22'0 0.0
2014-Sep-10 04:33N 47°44' W 003°22'0 0.0
2014-Sep-10 03:33N 47°44' W 003°22'0 0.0
2014-Sep-10 02:34N 47°44' W 003°22'0 0.0
2014-Sep-10 01:34N 47°44' W 003°22'0 0.0
2014-Sep-10 00:34N 47°44' W 003°22'0 0.0
2014-Sep-09 23:33N 47°44' W 003°22'0 0.0
2014-Sep-09 22:33N 47°44' W 003°22'0 0.0
2014-Sep-09 21:34N 47°44' W 003°22'0 0.0
2014-Sep-09 20:34N 47°44' W 003°22'0 0.0
2014-Sep-09 19:33N 47°44' W 003°22'0 0.0
2014-Sep-09 18:33N 47°44' W 003°22'0 0.0
2014-Sep-09 17:34N 47°44' W 003°22'0 0.0
2014-Sep-09 16:34N 47°44' W 003°22'0 0.0
2014-Sep-09 15:34N 47°44' W 003°22'0 0.0
2014-Sep-09 14:34N 47°44' W 003°22'0 0.0
2014-Sep-09 13:34N 47°44' W 003°22'0 0.0
2014-Sep-09 12:33N 47°44' W 003°22'0 0.0
2014-Sep-09 11:34N 47°44' W 003°22'0 0.0
2014-Sep-09 10:34N 47°44' W 003°22'0 0.0
2014-Sep-09 09:34N 47°44' W 003°22'0 0.0
2014-Sep-09 08:34N 47°44' W 003°22'0 0.0
2014-Sep-09 07:34N 47°44' W 003°22'0 0.0
2014-Sep-09 06:34N 47°44' W 003°22'0 0.2
2014-Sep-09 05:33N 47°44' W 003°22'0 0.0
2014-Sep-09 04:34N 47°44' W 003°22'6 5.5
2014-Sep-09 03:33N 47°38' W 003°20'78 8.6
2014-Sep-08 18:32N 46°39' W 002°06'8 8.1
2014-Sep-08 17:34N 46°34' W 001°57'8 7.7
2014-Sep-08 16:33N 46°29' W 001°49'1 1.5
2014-Sep-08 15:33N 46°30' W 001°48'0 0.0
2014-Sep-08 14:34N 46°30' W 001°47'0 0.0
2014-Sep-08 13:34N 46°30' W 001°47'0 0.2
2014-Sep-08 12:34N 46°30' W 001°47'2 1.6
2014-Sep-08 11:34N 46°28' W 001°47'9 8.7
2014-Sep-08 10:34N 46°20' W 001°44'14 2.8
2014-Sep-08 05:29N 46°06' W 001°42'  
Track history (hours):
 
Tides and Currents Weather Stations Pressure Air Temp Water Temp Dewpoint Dewpoint Depression Visibility Wind Speed Wind Dir Waves Ship Positions

F/V Anna Mamm Mari

Last reported at 2014-Sep-17 23:34 UTC. Time now 2014-Sep-17 23:40 UTC.
Position N 46°11' W 001°40'.

Length 17 m.

Type: Fishing. MMSI: 228393000.

Date/timePositionNaut miles runAvg speedWind from/ knotsBaromVisibWave heightAir tempDewpointWater temp
2014-Sep-17 23:34N 46°11' W 001°40'0 0.0
2014-Sep-17 22:32N 46°11' W 001°40'0 0.0
2014-Sep-17 21:27N 46°11' W 001°40'0 0.0
2014-Sep-17 20:27N 46°11' W 001°40'0 0.0
2014-Sep-17 17:14N 46°11' W 001°40'1 0.3
2014-Sep-17 15:32N 46°11' W 001°39'1 0.7
2014-Sep-17 14:31N 46°10' W 001°39'1 1.4
2014-Sep-17 13:33N 46°10' W 001°37'3 2.7
2014-Sep-17 12:32N 46°12' W 001°39'5 4.3
2014-Sep-17 11:28N 46°16' W 001°43'2 2.0
2014-Sep-17 10:31N 46°18' W 001°44'0 0.3
2014-Sep-17 09:33N 46°18' W 001°44'2 2.1
2014-Sep-17 08:32N 46°15' W 001°44'2 2.0
2014-Sep-17 07:33N 46°17' W 001°44'0 0.2
2014-Sep-17 06:28N 46°17' W 001°45'2 1.9
2014-Sep-17 05:33N 46°16' W 001°44'2 1.0
2014-Sep-17 03:33N 46°18' W 001°45'2 2.4
2014-Sep-17 02:33N 46°15' W 001°45'3 0.2
2014-Sep-16 15:12N 46°18' W 001°45'0 0.6
2014-Sep-16 14:23N 46°18' W 001°45'0 0.4
2014-Sep-16 13:34N 46°18' W 001°44'7 6.6
2014-Sep-16 12:32N 46°12' W 001°40'1 0.8
2014-Sep-16 11:11N 46°11' W 001°39'0 0.1
2014-Sep-16 09:14N 46°12' W 001°38'0 0.1
2014-Sep-16 06:22N 46°12' W 001°38'1 1.6
2014-Sep-16 05:32N 46°12' W 001°40'1 0.6
2014-Sep-16 04:33N 46°12' W 001°39'0 0.4
2014-Sep-16 03:33N 46°12' W 001°40'1 1.0
2014-Sep-16 02:33N 46°11' W 001°39'0 0.0
2014-Sep-16 01:31N 46°11' W 001°39'0 0.0
2014-Sep-16 00:33N 46°11' W 001°39'0 0.0
2014-Sep-15 23:29N 46°11' W 001°39'0 0.1
2014-Sep-15 22:34N 46°11' W 001°39'0 0.0
2014-Sep-15 21:34N 46°11' W 001°39'0 0.0
2014-Sep-15 18:17N 46°11' W 001°39'1 0.4
2014-Sep-15 15:22N 46°12' W 001°40'1 0.2
2014-Sep-15 09:28N 46°11' W 001°40'0 0.1
2014-Sep-15 07:24N 46°11' W 001°39'1 0.4
2014-Sep-15 04:32N 46°10' W 001°38'0 0.2
2014-Sep-15 03:33N 46°10' W 001°38'0 0.0
2014-Sep-15 01:32N 46°10' W 001°38'0 0.0
2014-Sep-15 00:25N 46°10' W 001°38'10 3.4
2014-Sep-14 21:28N 46°20' W 001°43'8 8.6
2014-Sep-14 20:33N 46°27' W 001°46'3 2.7
2014-Sep-14 19:33N 46°30' W 001°47'0 0.2
2014-Sep-14 18:33N 46°30' W 001°47'6 5.9
2014-Sep-14 17:33N 46°24' W 001°45'9 8.7
2014-Sep-14 16:33N 46°16' W 001°41'7 6.7
2014-Sep-14 15:33N 46°10' W 001°38'1 1.1
2014-Sep-14 14:33N 46°10' W 001°39'1 1.1
2014-Sep-14 13:32N 46°11' W 001°40'5 4.6
2014-Sep-14 12:33N 46°09' W 001°46'0 0.0
2014-Sep-14 09:09N 46°09' W 001°46'1 0.2
2014-Sep-14 05:09N 46°09' W 001°47'1 0.1
2014-Sep-13 18:23N 46°08' W 001°46'1 0.6
2014-Sep-13 16:18N 46°09' W 001°46'7 8.6
2014-Sep-13 15:32N 46°13' W 001°54'8 8.6
2014-Sep-13 14:33N 46°19' W 002°03'5 3.4
2014-Sep-13 13:07N 46°21' W 002°09'1 1.9
2014-Sep-13 12:33N 46°21' W 002°08'2 2.0
2014-Sep-13 11:24N 46°19' W 002°07'1 1.2
2014-Sep-13 10:33N 46°20' W 002°07'2 1.8
2014-Sep-13 09:32N 46°21' W 002°09'1 0.6
2014-Sep-13 08:33N 46°22' W 002°09'2 1.9
2014-Sep-13 07:33N 46°20' W 002°07'2 1.4
2014-Sep-13 06:30N 46°19' W 002°06'1 1.4
2014-Sep-13 05:33N 46°20' W 002°07'2 1.9
2014-Sep-13 04:33N 46°22' W 002°08'1 0.8
2014-Sep-13 03:33N 46°21' W 002°07'1 0.6
2014-Sep-13 02:33N 46°21' W 002°07'0 0.0
2014-Sep-13 01:33N 46°21' W 002°07'0 0.0
2014-Sep-13 00:33N 46°21' W 002°07'0 0.0
2014-Sep-12 23:33N 46°21' W 002°07'0 0.0
2014-Sep-12 22:33N 46°21' W 002°07'0 0.0
2014-Sep-12 21:33N 46°21' W 002°07'0 0.0
2014-Sep-12 20:33N 46°21' W 002°07'0 0.0
2014-Sep-12 19:33N 46°21' W 002°07'5 4.9
2014-Sep-12 18:33N 46°23' W 002°00'9 8.9
2014-Sep-12 17:33N 46°28' W 001°49'2 2.3
2014-Sep-12 16:33N 46°30' W 001°47'0 0.0
2014-Sep-12 15:33N 46°30' W 001°47'0 0.0
2014-Sep-12 14:33N 46°30' W 001°47'0 0.2
2014-Sep-12 13:33N 46°30' W 001°47'5 5.4
2014-Sep-12 12:33N 46°26' W 001°53'8 8.1
2014-Sep-12 11:33N 46°22' W 002°03'3 3.2
2014-Sep-12 10:33N 46°20' W 002°07'1 1.0
2014-Sep-12 09:32N 46°21' W 002°08'3 2.4
2014-Sep-12 08:07N 46°23' W 002°04'3 4.6
2014-Sep-12 07:33N 46°25' W 002°02'9 8.8
2014-Sep-12 06:33N 46°33' W 002°08'73 8.1
2014-Sep-11 21:33N 47°31' W 003°13'8 8.2
2014-Sep-11 20:33N 47°38' W 003°19'6 1.1
2014-Sep-11 15:25N 47°44' W 003°22'0 0.0
2014-Sep-11 14:34N 47°44' W 003°22'0 0.0
2014-Sep-11 13:34N 47°44' W 003°22'0 0.0
2014-Sep-11 12:34N 47°44' W 003°22'0 0.0
2014-Sep-11 11:33N 47°44' W 003°22'0 0.0
2014-Sep-11 10:34N 47°44' W 003°22'0 0.0
2014-Sep-11 09:33N 47°44' W 003°22'0 0.0
2014-Sep-11 08:34N 47°44' W 003°22'0 0.0
2014-Sep-11 07:34N 47°44' W 003°22'0 0.0
2014-Sep-11 06:33N 47°44' W 003°22'0 0.0
2014-Sep-11 05:34N 47°44' W 003°22'0 0.0
2014-Sep-11 04:34N 47°44' W 003°22'0 0.0
2014-Sep-11 03:33N 47°44' W 003°22'0 0.0
2014-Sep-11 02:34N 47°44' W 003°22'0 0.0
2014-Sep-11 01:33N 47°44' W 003°22'0 0.0
2014-Sep-11 00:33N 47°44' W 003°22'0 0.0
2014-Sep-10 23:34N 47°44' W 003°22'0 0.0
2014-Sep-10 22:34N 47°44' W 003°22'0 0.0
2014-Sep-10 21:34N 47°44' W 003°22'0 0.0
2014-Sep-10 20:33N 47°44' W 003°22'0 0.0
2014-Sep-10 19:34N 47°44' W 003°22'0 0.0
2014-Sep-10 18:33N 47°44' W 003°22'0 0.0
2014-Sep-10 17:34N 47°44' W 003°22'0 0.0
2014-Sep-10 16:34N 47°44' W 003°22'0 0.0
2014-Sep-10 15:34N 47°44' W 003°22'0 0.0
2014-Sep-10 14:34N 47°44' W 003°22'0 0.0
2014-Sep-10 13:34N 47°44' W 003°22'0 0.0
2014-Sep-10 12:33N 47°44' W 003°22'0 0.0
2014-Sep-10 11:33N 47°44' W 003°22'0 0.0
2014-Sep-10 10:34N 47°44' W 003°22'0 0.0
2014-Sep-10 09:34N 47°44' W 003°22'0 0.0
2014-Sep-10 08:34N 47°44' W 003°22'0 0.0
2014-Sep-10 07:33N 47°44' W 003°22'0 0.0
2014-Sep-10 06:34N 47°44' W 003°22'0 0.0
2014-Sep-10 05:34N 47°44' W 003°22'0 0.0
2014-Sep-10 04:33N 47°44' W 003°22'0 0.0
2014-Sep-10 03:33N 47°44' W 003°22'0 0.0
2014-Sep-10 02:34N 47°44' W 003°22'0 0.0
2014-Sep-10 01:34N 47°44' W 003°22'0 0.0
2014-Sep-10 00:34N 47°44' W 003°22'0 0.0
2014-Sep-09 23:33N 47°44' W 003°22'0 0.0
2014-Sep-09 22:33N 47°44' W 003°22'0 0.0
2014-Sep-09 21:34N 47°44' W 003°22'0 0.0
2014-Sep-09 20:34N 47°44' W 003°22'0 0.0
2014-Sep-09 19:33N 47°44' W 003°22'0 0.0
2014-Sep-09 18:33N 47°44' W 003°22'0 0.0
2014-Sep-09 17:34N 47°44' W 003°22'0 0.0
2014-Sep-09 16:34N 47°44' W 003°22'0 0.0
2014-Sep-09 15:34N 47°44' W 003°22'0 0.0
2014-Sep-09 14:34N 47°44' W 003°22'0 0.0
2014-Sep-09 13:34N 47°44' W 003°22'0 0.0
2014-Sep-09 12:33N 47°44' W 003°22'0 0.0
2014-Sep-09 11:34N 47°44' W 003°22'0 0.0
2014-Sep-09 10:34N 47°44' W 003°22'0 0.0
2014-Sep-09 09:34N 47°44' W 003°22'0 0.0
2014-Sep-09 08:34N 47°44' W 003°22'0 0.0
2014-Sep-09 07:34N 47°44' W 003°22'0 0.0
2014-Sep-09 06:34N 47°44' W 003°22'0 0.2
2014-Sep-09 05:33N 47°44' W 003°22'0 0.0
2014-Sep-09 04:34N 47°44' W 003°22'6 5.5
2014-Sep-09 03:33N 47°38' W 003°20'78 8.6
2014-Sep-08 18:32N 46°39' W 002°06'8 8.1
2014-Sep-08 17:34N 46°34' W 001°57'8 7.7
2014-Sep-08 16:33N 46°29' W 001°49'1 1.5
2014-Sep-08 15:33N 46°30' W 001°48'0 0.0
2014-Sep-08 14:34N 46°30' W 001°47'0 0.0
2014-Sep-08 13:34N 46°30' W 001°47'0 0.2
2014-Sep-08 12:34N 46°30' W 001°47'2 1.6
2014-Sep-08 11:34N 46°28' W 001°47'9 8.7
2014-Sep-08 10:34N 46°20' W 001°44'14 2.8
2014-Sep-08 05:29N 46°06' W 001°42'  

Dump ship's entire track history